sensor_id;sensor_type;location;lat;lon;timestamp;temperature;humidity
47576;DHT22;33304;52.456;13.328;2024-03-17T00:00:26;5.10;25.20
47576;DHT22;33304;52.456;13.328;2024-03-17T00:02:53;5.20;25.30
47576;DHT22;33304;52.456;13.328;2024-03-17T00:05:19;5.10;25.20
47576;DHT22;33304;52.456;13.328;2024-03-17T00:07:48;5.30;25.50
47576;DHT22;33304;52.456;13.328;2024-03-17T00:10:14;5.20;24.60
47576;DHT22;33304;52.456;13.328;2024-03-17T00:12:42;5.30;25.30
47576;DHT22;33304;52.456;13.328;2024-03-17T00:15:08;5.20;24.90
47576;DHT22;33304;52.456;13.328;2024-03-17T00:17:36;5.20;25.30
47576;DHT22;33304;52.456;13.328;2024-03-17T00:20:03;5.10;25.20
47576;DHT22;33304;52.456;13.328;2024-03-17T00:22:35;5.10;25.10
47576;DHT22;33304;52.456;13.328;2024-03-17T00:25:07;5.10;26.20
47576;DHT22;33304;52.456;13.328;2024-03-17T00:27:34;5.00;26.30
47576;DHT22;33304;52.456;13.328;2024-03-17T00:30:06;5.00;26.20
47576;DHT22;33304;52.456;13.328;2024-03-17T00:32:36;4.90;26.30
47576;DHT22;33304;52.456;13.328;2024-03-17T00:35:02;4.90;26.80
47576;DHT22;33304;52.456;13.328;2024-03-17T00:37:30;4.90;26.60
47576;DHT22;33304;52.456;13.328;2024-03-17T00:39:56;5.00;26.90
47576;DHT22;33304;52.456;13.328;2024-03-17T00:42:25;4.90;27.60
47576;DHT22;33304;52.456;13.328;2024-03-17T00:44:51;5.00;27.50
47576;DHT22;33304;52.456;13.328;2024-03-17T00:47:18;4.90;26.50
47576;DHT22;33304;52.456;13.328;2024-03-17T00:49:44;4.80;27.60
47576;DHT22;33304;52.456;13.328;2024-03-17T00:52:11;4.80;28.00
47576;DHT22;33304;52.456;13.328;2024-03-17T00:54:37;4.80;28.50
47576;DHT22;33304;52.456;13.328;2024-03-17T00:57:04;4.80;28.60
47576;DHT22;33304;52.456;13.328;2024-03-17T00:59:32;4.80;28.70
47576;DHT22;33304;52.456;13.328;2024-03-17T01:01:59;4.70;28.60
47576;DHT22;33304;52.456;13.328;2024-03-17T01:04:28;4.70;28.60
47576;DHT22;33304;52.456;13.328;2024-03-17T01:06:54;4.60;28.50
47576;DHT22;33304;52.456;13.328;2024-03-17T01:09:22;4.80;28.60
47576;DHT22;33304;52.456;13.328;2024-03-17T01:11:48;4.70;28.60
47576;DHT22;33304;52.456;13.328;2024-03-17T01:14:15;4.80;28.60
47576;DHT22;33304;52.456;13.328;2024-03-17T01:16:43;4.70;28.60
47576;DHT22;33304;52.456;13.328;2024-03-17T01:19:10;4.70;28.60
47576;DHT22;33304;52.456;13.328;2024-03-17T01:21:36;4.70;28.60
47576;DHT22;33304;52.456;13.328;2024-03-17T01:24:03;4.80;28.60
47576;DHT22;33304;52.456;13.328;2024-03-17T01:26:30;4.70;28.60
47576;DHT22;33304;52.456;13.328;2024-03-17T01:28:57;4.80;30.10
47576;DHT22;33304;52.456;13.328;2024-03-17T01:31:23;4.70;28.70
47576;DHT22;33304;52.456;13.328;2024-03-17T01:33:52;4.70;28.80
47576;DHT22;33304;52.456;13.328;2024-03-17T01:36:19;4.70;29.10
47576;DHT22;33304;52.456;13.328;2024-03-17T01:38:45;4.50;29.60
47576;DHT22;33304;52.456;13.328;2024-03-17T01:41:12;4.50;30.00
47576;DHT22;33304;52.456;13.328;2024-03-17T01:43:40;4.50;30.70
47576;DHT22;33304;52.456;13.328;2024-03-17T01:46:06;4.50;29.90
47576;DHT22;33304;52.456;13.328;2024-03-17T01:48:37;4.40;30.70
47576;DHT22;33304;52.456;13.328;2024-03-17T01:51:07;4.50;31.80
47576;DHT22;33304;52.456;13.328;2024-03-17T01:53:37;4.60;31.40
47576;DHT22;33304;52.456;13.328;2024-03-17T01:56:04;4.40;30.70
47576;DHT22;33304;52.456;13.328;2024-03-17T01:58:31;4.50;31.90
47576;DHT22;33304;52.456;13.328;2024-03-17T02:00:58;4.30;31.50
47576;DHT22;33304;52.456;13.328;2024-03-17T02:03:24;4.30;31.80
47576;DHT22;33304;52.456;13.328;2024-03-17T02:05:52;4.30;32.40
47576;DHT22;33304;52.456;13.328;2024-03-17T02:08:20;4.30;32.20
47576;DHT22;33304;52.456;13.328;2024-03-17T02:10:52;4.40;31.70
47576;DHT22;33304;52.456;13.328;2024-03-17T02:13:19;4.30;31.90
47576;DHT22;33304;52.456;13.328;2024-03-17T02:15:47;4.20;32.40
47576;DHT22;33304;52.456;13.328;2024-03-17T02:18:13;4.30;33.00
47576;DHT22;33304;52.456;13.328;2024-03-17T02:20:40;4.30;32.70
47576;DHT22;33304;52.456;13.328;2024-03-17T02:23:26;4.20;33.10
47576;DHT22;33304;52.456;13.328;2024-03-17T02:25:53;4.10;33.40
47576;DHT22;33304;52.456;13.328;2024-03-17T02:28:19;4.10;35.00
47576;DHT22;33304;52.456;13.328;2024-03-17T02:30:47;4.00;34.70
47576;DHT22;33304;52.456;13.328;2024-03-17T02:33:13;4.00;34.80
47576;DHT22;33304;52.456;13.328;2024-03-17T02:35:40;4.00;35.00
47576;DHT22;33304;52.456;13.328;2024-03-17T02:38:06;3.90;35.50
47576;DHT22;33304;52.456;13.328;2024-03-17T02:40:36;3.90;36.80
47576;DHT22;33304;52.456;13.328;2024-03-17T02:43:02;4.00;36.70
47576;DHT22;33304;52.456;13.328;2024-03-17T02:45:29;4.00;36.80
47576;DHT22;33304;52.456;13.328;2024-03-17T02:47:56;3.90;36.50
47576;DHT22;33304;52.456;13.328;2024-03-17T02:50:23;3.90;37.00
47576;DHT22;33304;52.456;13.328;2024-03-17T02:52:51;4.00;39.00
47576;DHT22;33304;52.456;13.328;2024-03-17T02:55:18;3.90;37.90
47576;DHT22;33304;52.456;13.328;2024-03-17T02:57:46;3.90;37.90
47576;DHT22;33304;52.456;13.328;2024-03-17T03:00:13;3.80;38.90
47576;DHT22;33304;52.456;13.328;2024-03-17T03:02:40;3.70;39.90
47576;DHT22;33304;52.456;13.328;2024-03-17T03:05:07;3.70;41.80
47576;DHT22;33304;52.456;13.328;2024-03-17T03:07:34;3.80;41.40
47576;DHT22;33304;52.456;13.328;2024-03-17T03:10:01;3.70;41.90
47576;DHT22;33304;52.456;13.328;2024-03-17T03:12:29;3.70;43.10
47576;DHT22;33304;52.456;13.328;2024-03-17T03:14:58;3.60;44.40
47576;DHT22;33304;52.456;13.328;2024-03-17T03:17:25;3.70;44.50
47576;DHT22;33304;52.456;13.328;2024-03-17T03:19:52;3.70;44.50
47576;DHT22;33304;52.456;13.328;2024-03-17T03:22:21;3.70;44.60
47576;DHT22;33304;52.456;13.328;2024-03-17T03:24:51;3.70;46.10
47576;DHT22;33304;52.456;13.328;2024-03-17T03:27:18;3.60;46.60
47576;DHT22;33304;52.456;13.328;2024-03-17T03:29:45;3.60;47.90
47576;DHT22;33304;52.456;13.328;2024-03-17T03:32:14;3.60;48.60
47576;DHT22;33304;52.456;13.328;2024-03-17T03:34:41;3.70;50.00
47576;DHT22;33304;52.456;13.328;2024-03-17T03:37:09;3.50;49.80
47576;DHT22;33304;52.456;13.328;2024-03-17T03:39:37;3.60;50.00
47576;DHT22;33304;52.456;13.328;2024-03-17T03:42:04;3.60;50.00
47576;DHT22;33304;52.456;13.328;2024-03-17T03:44:31;3.50;50.70
47576;DHT22;33304;52.456;13.328;2024-03-17T03:46:59;3.40;53.90
47576;DHT22;33304;52.456;13.328;2024-03-17T03:49:28;3.30;55.60
47576;DHT22;33304;52.456;13.328;2024-03-17T03:51:56;3.40;57.20
47576;DHT22;33304;52.456;13.328;2024-03-17T03:54:23;3.30;58.20
47576;DHT22;33304;52.456;13.328;2024-03-17T03:56:50;3.30;59.80
47576;DHT22;33304;52.456;13.328;2024-03-17T03:59:17;3.40;59.90
47576;DHT22;33304;52.456;13.328;2024-03-17T04:01:44;3.30;61.40
47576;DHT22;33304;52.456;13.328;2024-03-17T04:04:13;3.30;64.10
47576;DHT22;33304;52.456;13.328;2024-03-17T04:06:42;3.20;64.10
47576;DHT22;33304;52.456;13.328;2024-03-17T04:09:09;3.20;67.10
47576;DHT22;33304;52.456;13.328;2024-03-17T04:11:37;3.20;67.50
47576;DHT22;33304;52.456;13.328;2024-03-17T04:14:04;3.30;71.20
47576;DHT22;33304;52.456;13.328;2024-03-17T04:16:31;3.20;70.70
47576;DHT22;33304;52.456;13.328;2024-03-17T04:18:59;3.10;73.50
47576;DHT22;33304;52.456;13.328;2024-03-17T04:21:26;3.20;72.90
47576;DHT22;33304;52.456;13.328;2024-03-17T04:23:54;3.20;73.80
47576;DHT22;33304;52.456;13.328;2024-03-17T04:26:21;3.10;74.90
47576;DHT22;33304;52.456;13.328;2024-03-17T04:28:49;3.10;78.00
47576;DHT22;33304;52.456;13.328;2024-03-17T04:31:16;3.10;81.40
47576;DHT22;33304;52.456;13.328;2024-03-17T04:33:43;3.10;81.40
47576;DHT22;33304;52.456;13.328;2024-03-17T04:36:10;3.20;83.90
47576;DHT22;33304;52.456;13.328;2024-03-17T04:38:39;3.20;83.20
47576;DHT22;33304;52.456;13.328;2024-03-17T04:41:07;3.20;84.10
47576;DHT22;33304;52.456;13.328;2024-03-17T04:43:35;3.20;82.90
47576;DHT22;33304;52.456;13.328;2024-03-17T04:46:03;3.10;85.00
47576;DHT22;33304;52.456;13.328;2024-03-17T04:48:32;3.20;85.10
47576;DHT22;33304;52.456;13.328;2024-03-17T04:51:00;3.30;86.60
47576;DHT22;33304;52.456;13.328;2024-03-17T04:53:27;3.30;85.30
47576;DHT22;33304;52.456;13.328;2024-03-17T04:56:01;3.00;86.40
47576;DHT22;33304;52.456;13.328;2024-03-17T04:58:32;3.00;90.00
47576;DHT22;33304;52.456;13.328;2024-03-17T05:01:04;2.90;92.70
47576;DHT22;33304;52.456;13.328;2024-03-17T05:03:32;2.90;95.20
47576;DHT22;33304;52.456;13.328;2024-03-17T05:05:59;2.90;98.50
47576;DHT22;33304;52.456;13.328;2024-03-17T05:08:30;2.90;98.00
47576;DHT22;33304;52.456;13.328;2024-03-17T05:10:58;3.00;97.40
47576;DHT22;33304;52.456;13.328;2024-03-17T05:13:26;3.00;97.10
47576;DHT22;33304;52.456;13.328;2024-03-17T05:15:55;3.00;96.90
47576;DHT22;33304;52.456;13.328;2024-03-17T05:18:22;3.10;98.20
47576;DHT22;33304;52.456;13.328;2024-03-17T05:20:57;3.10;95.50
47576;DHT22;33304;52.456;13.328;2024-03-17T05:23:26;3.00;96.10
47576;DHT22;33304;52.456;13.328;2024-03-17T05:25:54;3.00;97.00
47576;DHT22;33304;52.456;13.328;2024-03-17T05:28:22;3.00;96.60
47576;DHT22;33304;52.456;13.328;2024-03-17T05:30:49;3.00;95.90
47576;DHT22;33304;52.456;13.328;2024-03-17T05:33:20;3.00;96.40
47576;DHT22;33304;52.456;13.328;2024-03-17T05:35:51;2.90;96.30
47576;DHT22;33304;52.456;13.328;2024-03-17T05:38:19;2.90;97.20
47576;DHT22;33304;52.456;13.328;2024-03-17T05:40:54;2.90;98.30
47576;DHT22;33304;52.456;13.328;2024-03-17T05:43:22;2.90;97.70
47576;DHT22;33304;52.456;13.328;2024-03-17T05:45:50;2.90;98.20
47576;DHT22;33304;52.456;13.328;2024-03-17T05:48:18;2.80;98.10
47576;DHT22;33304;52.456;13.328;2024-03-17T05:50:46;2.80;99.10
47576;DHT22;33304;52.456;13.328;2024-03-17T05:53:13;2.90;99.90
47576;DHT22;33304;52.456;13.328;2024-03-17T05:55:40;3.00;99.30
47576;DHT22;33304;52.456;13.328;2024-03-17T05:58:09;2.90;99.00
47576;DHT22;33304;52.456;13.328;2024-03-17T06:00:36;2.90;99.90
47576;DHT22;33304;52.456;13.328;2024-03-17T06:03:04;3.00;99.20
47576;DHT22;33304;52.456;13.328;2024-03-17T06:05:33;2.80;99.90
47576;DHT22;33304;52.456;13.328;2024-03-17T06:08:00;2.90;99.90
47576;DHT22;33304;52.456;13.328;2024-03-17T06:10:28;2.80;99.90
47576;DHT22;33304;52.456;13.328;2024-03-17T06:12:56;2.80;99.90
47576;DHT22;33304;52.456;13.328;2024-03-17T06:15:24;2.90;99.90
47576;DHT22;33304;52.456;13.328;2024-03-17T06:17:51;2.90;99.90
47576;DHT22;33304;52.456;13.328;2024-03-17T06:20:18;3.00;99.90
47576;DHT22;33304;52.456;13.328;2024-03-17T06:22:47;3.10;99.90
47576;DHT22;33304;52.456;13.328;2024-03-17T06:25:15;3.20;99.90
47576;DHT22;33304;52.456;13.328;2024-03-17T06:27:42;3.20;99.90
47576;DHT22;33304;52.456;13.328;2024-03-17T06:30:12;3.30;99.90
47576;DHT22;33304;52.456;13.328;2024-03-17T06:32:40;3.30;99.90
47576;DHT22;33304;52.456;13.328;2024-03-17T06:35:08;3.30;99.90
47576;DHT22;33304;52.456;13.328;2024-03-17T06:37:35;3.60;99.90
47576;DHT22;33304;52.456;13.328;2024-03-17T06:40:04;3.50;95.10
47576;DHT22;33304;52.456;13.328;2024-03-17T06:42:32;3.50;96.60
47576;DHT22;33304;52.456;13.328;2024-03-17T06:44:59;3.50;95.80
47576;DHT22;33304;52.456;13.328;2024-03-17T06:47:26;3.60;95.40
47576;DHT22;33304;52.456;13.328;2024-03-17T06:49:53;3.70;95.20
47576;DHT22;33304;52.456;13.328;2024-03-17T06:52:21;3.70;95.20
47576;DHT22;33304;52.456;13.328;2024-03-17T06:54:48;3.80;95.20
47576;DHT22;33304;52.456;13.328;2024-03-17T06:57:18;3.90;91.20
47576;DHT22;33304;52.456;13.328;2024-03-17T06:59:45;4.10;87.30
47576;DHT22;33304;52.456;13.328;2024-03-17T07:02:14;4.10;82.40
47576;DHT22;33304;52.456;13.328;2024-03-17T07:04:43;4.20;77.80
47576;DHT22;33304;52.456;13.328;2024-03-17T07:07:10;4.30;72.10
47576;DHT22;33304;52.456;13.328;2024-03-17T07:09:39;4.20;68.30
47576;DHT22;33304;52.456;13.328;2024-03-17T07:12:06;4.30;66.00
47576;DHT22;33304;52.456;13.328;2024-03-17T07:14:35;4.30;63.70
47576;DHT22;33304;52.456;13.328;2024-03-17T07:17:02;4.30;63.50
47576;DHT22;33304;52.456;13.328;2024-03-17T07:19:30;4.40;62.70
47576;DHT22;33304;52.456;13.328;2024-03-17T07:21:58;4.40;61.40
47576;DHT22;33304;52.456;13.328;2024-03-17T07:24:25;4.60;60.20
47576;DHT22;33304;52.456;13.328;2024-03-17T07:26:53;4.60;58.70
47576;DHT22;33304;52.456;13.328;2024-03-17T07:29:20;4.70;54.70
47576;DHT22;33304;52.456;13.328;2024-03-17T07:31:49;4.70;56.30
47576;DHT22;33304;52.456;13.328;2024-03-17T07:34:16;4.70;51.00
47576;DHT22;33304;52.456;13.328;2024-03-17T07:36:43;4.70;53.80
47576;DHT22;33304;52.456;13.328;2024-03-17T07:39:10;4.80;52.60
47576;DHT22;33304;52.456;13.328;2024-03-17T07:41:38;4.90;51.00
47576;DHT22;33304;52.456;13.328;2024-03-17T07:44:05;4.90;50.80
47576;DHT22;33304;52.456;13.328;2024-03-17T07:46:32;5.10;48.50
47576;DHT22;33304;52.456;13.328;2024-03-17T07:49:00;5.30;45.80
47576;DHT22;33304;52.456;13.328;2024-03-17T07:51:27;5.30;45.80
47576;DHT22;33304;52.456;13.328;2024-03-17T07:53:54;5.50;44.50
47576;DHT22;33304;52.456;13.328;2024-03-17T07:56:22;5.60;40.40
47576;DHT22;33304;52.456;13.328;2024-03-17T07:58:49;5.60;42.20
47576;DHT22;33304;52.456;13.328;2024-03-17T08:01:17;5.50;42.40
47576;DHT22;33304;52.456;13.328;2024-03-17T08:03:46;5.80;41.30
47576;DHT22;33304;52.456;13.328;2024-03-17T08:06:16;5.80;37.60
47576;DHT22;33304;52.456;13.328;2024-03-17T08:08:43;5.80;36.90
47576;DHT22;33304;52.456;13.328;2024-03-17T08:11:10;5.90;35.50
47576;DHT22;33304;52.456;13.328;2024-03-17T08:13:37;6.00;32.20
47576;DHT22;33304;52.456;13.328;2024-03-17T08:16:06;6.00;32.80
47576;DHT22;33304;52.456;13.328;2024-03-17T08:18:34;6.10;29.50
47576;DHT22;33304;52.456;13.328;2024-03-17T08:21:03;6.30;32.50
47576;DHT22;33304;52.456;13.328;2024-03-17T08:23:33;6.50;29.70
47576;DHT22;33304;52.456;13.328;2024-03-17T08:26:02;6.60;28.70
47576;DHT22;33304;52.456;13.328;2024-03-17T08:28:29;6.50;28.60
47576;DHT22;33304;52.456;13.328;2024-03-17T08:30:58;6.60;27.20
47576;DHT22;33304;52.456;13.328;2024-03-17T08:33:26;6.60;25.20
47576;DHT22;33304;52.456;13.328;2024-03-17T08:35:54;6.80;25.90
47576;DHT22;33304;52.456;13.328;2024-03-17T08:38:22;6.50;24.20
47576;DHT22;33304;52.456;13.328;2024-03-17T08:40:51;6.70;24.90
47576;DHT22;33304;52.456;13.328;2024-03-17T08:43:19;6.80;24.90
47576;DHT22;33304;52.456;13.328;2024-03-17T08:45:54;6.80;21.80
47576;DHT22;33304;52.456;13.328;2024-03-17T08:48:21;6.80;20.70
47576;DHT22;33304;52.456;13.328;2024-03-17T08:50:50;7.00;20.80
47576;DHT22;33304;52.456;13.328;2024-03-17T08:53:18;6.90;18.80
47576;DHT22;33304;52.456;13.328;2024-03-17T08:55:45;7.10;20.00
47576;DHT22;33304;52.456;13.328;2024-03-17T08:58:13;7.30;17.90
47576;DHT22;33304;52.456;13.328;2024-03-17T09:00:41;7.40;17.70
47576;DHT22;33304;52.456;13.328;2024-03-17T09:03:09;7.50;19.30
47576;DHT22;33304;52.456;13.328;2024-03-17T09:05:36;7.60;18.80
47576;DHT22;33304;52.456;13.328;2024-03-17T09:08:04;7.70;16.20
47576;DHT22;33304;52.456;13.328;2024-03-17T09:10:31;7.70;16.80
47576;DHT22;33304;52.456;13.328;2024-03-17T09:12:58;7.60;13.30
47576;DHT22;33304;52.456;13.328;2024-03-17T09:15:27;7.70;15.50
47576;DHT22;33304;52.456;13.328;2024-03-17T09:17:54;7.80;15.10
47576;DHT22;33304;52.456;13.328;2024-03-17T09:20:21;7.90;14.70
47576;DHT22;33304;52.456;13.328;2024-03-17T09:22:48;8.20;15.00
47576;DHT22;33304;52.456;13.328;2024-03-17T09:25:15;8.40;12.60
47576;DHT22;33304;52.456;13.328;2024-03-17T09:27:42;8.50;10.70
47576;DHT22;33304;52.456;13.328;2024-03-17T09:30:10;8.20;10.70
47576;DHT22;33304;52.456;13.328;2024-03-17T09:32:38;8.40;12.10
47576;DHT22;33304;52.456;13.328;2024-03-17T09:35:07;8.30;12.00
47576;DHT22;33304;52.456;13.328;2024-03-17T09:37:35;8.30;12.00
47576;DHT22;33304;52.456;13.328;2024-03-17T09:40:03;8.20;11.00
47576;DHT22;33304;52.456;13.328;2024-03-17T09:42:32;8.20;11.60
47576;DHT22;33304;52.456;13.328;2024-03-17T09:44:59;8.30;12.00
47576;DHT22;33304;52.456;13.328;2024-03-17T09:47:26;8.60;11.00
47576;DHT22;33304;52.456;13.328;2024-03-17T09:49:55;9.00;10.40
47576;DHT22;33304;52.456;13.328;2024-03-17T09:52:23;8.90;8.00
47576;DHT22;33304;52.456;13.328;2024-03-17T09:54:55;8.80;8.20
47576;DHT22;33304;52.456;13.328;2024-03-17T09:57:25;8.90;8.30
47576;DHT22;33304;52.456;13.328;2024-03-17T09:59:52;9.00;8.80
47576;DHT22;33304;52.456;13.328;2024-03-17T10:02:21;9.30;8.50
47576;DHT22;33304;52.456;13.328;2024-03-17T10:04:49;9.40;6.60
47576;DHT22;33304;52.456;13.328;2024-03-17T10:07:17;9.20;6.10
47576;DHT22;33304;52.456;13.328;2024-03-17T10:09:44;9.10;6.70
47576;DHT22;33304;52.456;13.328;2024-03-17T10:12:25;8.90;6.40
47576;DHT22;33304;52.456;13.328;2024-03-17T10:14:59;9.00;7.10
47576;DHT22;33304;52.456;13.328;2024-03-17T10:17:30;9.10;6.50
47576;DHT22;33304;52.456;13.328;2024-03-17T10:20:17;9.40;5.30
47576;DHT22;33304;52.456;13.328;2024-03-17T10:22:59;9.60;6.40
47576;DHT22;33304;52.456;13.328;2024-03-17T10:25:26;9.90;3.00
47576;DHT22;33304;52.456;13.328;2024-03-17T10:27:53;9.80;2.90
47576;DHT22;33304;52.456;13.328;2024-03-17T10:30:21;9.80;4.40
47576;DHT22;33304;52.456;13.328;2024-03-17T10:32:53;9.90;3.90
47576;DHT22;33304;52.456;13.328;2024-03-17T10:35:29;9.90;5.30
47576;DHT22;33304;52.456;13.328;2024-03-17T10:37:59;10.00;3.80
47576;DHT22;33304;52.456;13.328;2024-03-17T10:40:28;9.90;4.10
47576;DHT22;33304;52.456;13.328;2024-03-17T10:42:57;10.00;2.30
47576;DHT22;33304;52.456;13.328;2024-03-17T10:45:26;9.80;2.90
47576;DHT22;33304;52.456;13.328;2024-03-17T10:47:59;10.00;2.30
47576;DHT22;33304;52.456;13.328;2024-03-17T10:50:30;10.00;2.00
47576;DHT22;33304;52.456;13.328;2024-03-17T10:53:01;9.90;3.00
47576;DHT22;33304;52.456;13.328;2024-03-17T10:55:34;9.80;2.90
47576;DHT22;33304;52.456;13.328;2024-03-17T10:58:18;9.60;4.30
47576;DHT22;33304;52.456;13.328;2024-03-17T11:00:49;9.70;2.90
47576;DHT22;33304;52.456;13.328;2024-03-17T11:03:18;9.60;2.80
47576;DHT22;33304;52.456;13.328;2024-03-17T11:05:47;9.70;2.70
47576;DHT22;33304;52.456;13.328;2024-03-17T11:08:17;9.50;1.60
47576;DHT22;33304;52.456;13.328;2024-03-17T11:10:52;9.20;1.00
47576;DHT22;33304;52.456;13.328;2024-03-17T11:13:24;9.40;1.10
47576;DHT22;33304;52.456;13.328;2024-03-17T11:15:52;9.50;1.00
47576;DHT22;33304;52.456;13.328;2024-03-17T11:18:29;9.60;1.00
47576;DHT22;33304;52.456;13.328;2024-03-17T11:20:57;10.00;1.00
47576;DHT22;33304;52.456;13.328;2024-03-17T11:23:30;10.30;1.00
47576;DHT22;33304;52.456;13.328;2024-03-17T11:25:58;10.40;1.00
47576;DHT22;33304;52.456;13.328;2024-03-17T11:28:47;10.40;1.00
47576;DHT22;33304;52.456;13.328;2024-03-17T11:31:35;10.30;1.00
47576;DHT22;33304;52.456;13.328;2024-03-17T11:34:01;10.30;1.00
47576;DHT22;33304;52.456;13.328;2024-03-17T11:36:33;10.50;1.00
47576;DHT22;33304;52.456;13.328;2024-03-17T11:39:04;10.20;1.00
47576;DHT22;33304;52.456;13.328;2024-03-17T11:41:39;9.90;1.00
47576;DHT22;33304;52.456;13.328;2024-03-17T11:44:14;9.70;1.00
47576;DHT22;33304;52.456;13.328;2024-03-17T11:46:40;10.10;1.00
47576;DHT22;33304;52.456;13.328;2024-03-17T11:49:18;10.30;1.00
47576;DHT22;33304;52.456;13.328;2024-03-17T11:51:45;10.70;1.00
47576;DHT22;33304;52.456;13.328;2024-03-17T11:54:15;10.50;1.00
47576;DHT22;33304;52.456;13.328;2024-03-17T11:56:47;10.90;1.00
47576;DHT22;33304;52.456;13.328;2024-03-17T11:59:13;10.60;1.00
47576;DHT22;33304;52.456;13.328;2024-03-17T12:01:44;10.70;1.00
47576;DHT22;33304;52.456;13.328;2024-03-17T12:04:11;10.90;1.00
47576;DHT22;33304;52.456;13.328;2024-03-17T12:06:39;11.10;1.00
47576;DHT22;33304;52.456;13.328;2024-03-17T12:09:10;11.40;1.00
47576;DHT22;33304;52.456;13.328;2024-03-17T12:11:39;11.20;1.00
47576;DHT22;33304;52.456;13.328;2024-03-17T12:14:14;11.50;1.00
47576;DHT22;33304;52.456;13.328;2024-03-17T12:16:49;11.20;1.00
47576;DHT22;33304;52.456;13.328;2024-03-17T12:19:15;11.30;1.00
47576;DHT22;33304;52.456;13.328;2024-03-17T12:21:47;11.40;1.00
47576;DHT22;33304;52.456;13.328;2024-03-17T12:24:17;11.50;1.00
47576;DHT22;33304;52.456;13.328;2024-03-17T12:26:46;11.80;1.00
47576;DHT22;33304;52.456;13.328;2024-03-17T12:29:22;11.90;1.00
47576;DHT22;33304;52.456;13.328;2024-03-17T12:31:50;12.10;1.00
47576;DHT22;33304;52.456;13.328;2024-03-17T12:34:17;12.10;1.00
47576;DHT22;33304;52.456;13.328;2024-03-17T12:36:45;12.30;1.00
47576;DHT22;33304;52.456;13.328;2024-03-17T12:39:19;12.50;1.00
47576;DHT22;33304;52.456;13.328;2024-03-17T12:42:01;12.60;1.00
47576;DHT22;33304;52.456;13.328;2024-03-17T12:44:27;12.60;1.00
47576;DHT22;33304;52.456;13.328;2024-03-17T12:46:56;12.70;1.00
47576;DHT22;33304;52.456;13.328;2024-03-17T12:49:22;12.80;1.00
47576;DHT22;33304;52.456;13.328;2024-03-17T12:51:52;12.70;1.00
47576;DHT22;33304;52.456;13.328;2024-03-17T12:54:22;13.10;1.00
47576;DHT22;33304;52.456;13.328;2024-03-17T12:57:02;13.00;1.00
47576;DHT22;33304;52.456;13.328;2024-03-17T12:59:47;12.80;1.00
47576;DHT22;33304;52.456;13.328;2024-03-17T13:02:46;12.60;1.00
47576;DHT22;33304;52.456;13.328;2024-03-17T13:05:15;12.10;1.00
47576;DHT22;33304;52.456;13.328;2024-03-17T13:07:42;12.00;1.00
47576;DHT22;33304;52.456;13.328;2024-03-17T13:10:13;12.30;1.00
47576;DHT22;33304;52.456;13.328;2024-03-17T13:12:42;12.60;1.00
47576;DHT22;33304;52.456;13.328;2024-03-17T13:15:11;13.50;1.00
47576;DHT22;33304;52.456;13.328;2024-03-17T13:17:39;14.00;1.00
47576;DHT22;33304;52.456;13.328;2024-03-17T13:20:07;14.10;1.00
47576;DHT22;33304;52.456;13.328;2024-03-17T13:22:38;14.50;1.00
47576;DHT22;33304;52.456;13.328;2024-03-17T13:25:08;14.50;1.00
47576;DHT22;33304;52.456;13.328;2024-03-17T13:27:37;15.00;1.00
47576;DHT22;33304;52.456;13.328;2024-03-17T13:30:07;14.70;1.00
47576;DHT22;33304;52.456;13.328;2024-03-17T13:32:35;15.70;1.00
47576;DHT22;33304;52.456;13.328;2024-03-17T13:35:02;15.90;1.00
47576;DHT22;33304;52.456;13.328;2024-03-17T13:37:29;16.20;1.00
47576;DHT22;33304;52.456;13.328;2024-03-17T13:39:56;15.60;1.00
47576;DHT22;33304;52.456;13.328;2024-03-17T13:42:23;15.80;1.00
47576;DHT22;33304;52.456;13.328;2024-03-17T13:44:50;15.60;1.00
47576;DHT22;33304;52.456;13.328;2024-03-17T13:47:19;15.70;1.00
47576;DHT22;33304;52.456;13.328;2024-03-17T13:49:46;16.10;1.00
47576;DHT22;33304;52.456;13.328;2024-03-17T13:52:13;16.20;1.00
47576;DHT22;33304;52.456;13.328;2024-03-17T13:54:41;15.40;1.00
47576;DHT22;33304;52.456;13.328;2024-03-17T13:57:08;16.00;1.00
47576;DHT22;33304;52.456;13.328;2024-03-17T13:59:35;16.10;1.00
47576;DHT22;33304;52.456;13.328;2024-03-17T14:02:02;17.00;1.00
47576;DHT22;33304;52.456;13.328;2024-03-17T14:04:31;16.50;1.00
47576;DHT22;33304;52.456;13.328;2024-03-17T14:06:58;16.50;1.00
47576;DHT22;33304;52.456;13.328;2024-03-17T14:09:30;16.50;1.00
47576;DHT22;33304;52.456;13.328;2024-03-17T14:11:57;15.30;1.00
47576;DHT22;33304;52.456;13.328;2024-03-17T14:14:24;15.80;1.00
47576;DHT22;33304;52.456;13.328;2024-03-17T14:16:51;16.10;1.00
47576;DHT22;33304;52.456;13.328;2024-03-17T14:19:19;17.50;1.00
47576;DHT22;33304;52.456;13.328;2024-03-17T14:21:47;18.20;1.00
47576;DHT22;33304;52.456;13.328;2024-03-17T14:24:15;17.70;1.00
47576;DHT22;33304;52.456;13.328;2024-03-17T14:26:42;17.10;1.00
47576;DHT22;33304;52.456;13.328;2024-03-17T14:29:09;17.10;1.00
47576;DHT22;33304;52.456;13.328;2024-03-17T14:31:36;17.80;1.00
47576;DHT22;33304;52.456;13.328;2024-03-17T14:34:04;17.70;1.00
47576;DHT22;33304;52.456;13.328;2024-03-17T14:36:31;16.80;1.00
47576;DHT22;33304;52.456;13.328;2024-03-17T14:39:00;16.40;1.00
47576;DHT22;33304;52.456;13.328;2024-03-17T14:41:28;16.10;1.00
47576;DHT22;33304;52.456;13.328;2024-03-17T14:43:56;16.30;1.00
47576;DHT22;33304;52.456;13.328;2024-03-17T14:46:23;16.50;1.00
47576;DHT22;33304;52.456;13.328;2024-03-17T14:48:50;16.80;1.00
47576;DHT22;33304;52.456;13.328;2024-03-17T14:51:17;17.40;1.00
47576;DHT22;33304;52.456;13.328;2024-03-17T14:53:45;16.00;1.00
47576;DHT22;33304;52.456;13.328;2024-03-17T14:56:16;15.30;1.00
47576;DHT22;33304;52.456;13.328;2024-03-17T14:58:44;15.60;1.00
47576;DHT22;33304;52.456;13.328;2024-03-17T15:01:13;15.60;1.00
47576;DHT22;33304;52.456;13.328;2024-03-17T15:03:40;15.70;1.00
47576;DHT22;33304;52.456;13.328;2024-03-17T15:06:11;15.50;1.00
47576;DHT22;33304;52.456;13.328;2024-03-17T15:08:38;15.50;1.00
47576;DHT22;33304;52.456;13.328;2024-03-17T15:11:05;16.30;1.00
47576;DHT22;33304;52.456;13.328;2024-03-17T15:13:39;17.50;1.00
47576;DHT22;33304;52.456;13.328;2024-03-17T15:16:08;17.10;1.00
47576;DHT22;33304;52.456;13.328;2024-03-17T15:18:35;17.10;1.00
47576;DHT22;33304;52.456;13.328;2024-03-17T15:21:03;16.80;1.00
47576;DHT22;33304;52.456;13.328;2024-03-17T15:23:33;16.50;1.00
47576;DHT22;33304;52.456;13.328;2024-03-17T15:26:00;17.60;1.00
47576;DHT22;33304;52.456;13.328;2024-03-17T15:28:32;17.40;1.00
47576;DHT22;33304;52.456;13.328;2024-03-17T15:31:02;17.90;1.00
47576;DHT22;33304;52.456;13.328;2024-03-17T15:33:29;18.20;1.00
47576;DHT22;33304;52.456;13.328;2024-03-17T15:35:56;18.70;1.00
47576;DHT22;33304;52.456;13.328;2024-03-17T15:38:23;18.60;1.00
47576;DHT22;33304;52.456;13.328;2024-03-17T15:40:51;18.50;1.00